sensor_id;sensor_type;location;lat;lon;timestamp;temperature;humidity
20141;DHT22;10231;47.702;9.826;2024-02-15T00:02:14;6.30;99.90
20141;DHT22;10231;47.702;9.826;2024-02-15T00:04:39;6.30;99.90
20141;DHT22;10231;47.702;9.826;2024-02-15T00:07:05;6.30;99.90
20141;DHT22;10231;47.702;9.826;2024-02-15T00:09:31;6.30;99.90
20141;DHT22;10231;47.702;9.826;2024-02-15T00:11:56;6.30;99.90
20141;DHT22;10231;47.702;9.826;2024-02-15T00:14:22;6.30;99.90
20141;DHT22;10231;47.702;9.826;2024-02-15T00:16:48;6.20;99.90
20141;DHT22;10231;47.702;9.826;2024-02-15T00:19:13;6.20;99.90
20141;DHT22;10231;47.702;9.826;2024-02-15T00:21:45;6.20;99.90
20141;DHT22;10231;47.702;9.826;2024-02-15T00:24:11;6.10;99.90
20141;DHT22;10231;47.702;9.826;2024-02-15T00:26:37;6.00;99.90
20141;DHT22;10231;47.702;9.826;2024-02-15T00:29:02;6.00;99.90
20141;DHT22;10231;47.702;9.826;2024-02-15T00:31:28;5.90;99.90
20141;DHT22;10231;47.702;9.826;2024-02-15T00:33:53;5.90;99.90
20141;DHT22;10231;47.702;9.826;2024-02-15T00:36:20;5.90;99.90
20141;DHT22;10231;47.702;9.826;2024-02-15T00:38:46;5.80;99.90
20141;DHT22;10231;47.702;9.826;2024-02-15T00:41:11;5.70;99.90
20141;DHT22;10231;47.702;9.826;2024-02-15T00:43:37;5.70;99.90
20141;DHT22;10231;47.702;9.826;2024-02-15T00:46:03;5.70;99.90
20141;DHT22;10231;47.702;9.826;2024-02-15T00:48:28;5.70;99.90
20141;DHT22;10231;47.702;9.826;2024-02-15T00:50:55;5.70;99.90
20141;DHT22;10231;47.702;9.826;2024-02-15T00:53:21;5.80;99.90
20141;DHT22;10231;47.702;9.826;2024-02-15T00:55:46;5.80;99.90
20141;DHT22;10231;47.702;9.826;2024-02-15T00:58:12;6.00;99.90
20141;DHT22;10231;47.702;9.826;2024-02-15T01:00:38;6.00;99.90
20141;DHT22;10231;47.702;9.826;2024-02-15T01:03:04;5.90;99.90
20141;DHT22;10231;47.702;9.826;2024-02-15T01:05:29;5.90;99.90
20141;DHT22;10231;47.702;9.826;2024-02-15T01:07:56;5.90;99.90
20141;DHT22;10231;47.702;9.826;2024-02-15T01:10:21;5.90;99.90
20141;DHT22;10231;47.702;9.826;2024-02-15T01:12:48;5.70;99.90
20141;DHT22;10231;47.702;9.826;2024-02-15T01:15:14;5.70;99.90
20141;DHT22;10231;47.702;9.826;2024-02-15T01:17:43;5.60;99.90
20141;DHT22;10231;47.702;9.826;2024-02-15T01:20:10;5.60;99.90
20141;DHT22;10231;47.702;9.826;2024-02-15T01:22:36;5.50;99.90
20141;DHT22;10231;47.702;9.826;2024-02-15T01:25:01;5.40;99.90
20141;DHT22;10231;47.702;9.826;2024-02-15T01:27:27;5.40;99.90
20141;DHT22;10231;47.702;9.826;2024-02-15T01:29:58;5.30;99.90
20141;DHT22;10231;47.702;9.826;2024-02-15T01:32:24;5.30;99.90
20141;DHT22;10231;47.702;9.826;2024-02-15T01:34:50;5.30;99.90
20141;DHT22;10231;47.702;9.826;2024-02-15T01:37:19;5.30;99.90
20141;DHT22;10231;47.702;9.826;2024-02-15T01:39:45;5.30;99.90
20141;DHT22;10231;47.702;9.826;2024-02-15T01:42:11;5.40;99.90
20141;DHT22;10231;47.702;9.826;2024-02-15T01:44:40;5.30;99.90
20141;DHT22;10231;47.702;9.826;2024-02-15T01:47:06;5.30;99.90
20141;DHT22;10231;47.702;9.826;2024-02-15T01:49:32;5.30;99.90
20141;DHT22;10231;47.702;9.826;2024-02-15T01:51:58;5.30;99.90
20141;DHT22;10231;47.702;9.826;2024-02-15T01:54:25;5.30;99.90
20141;DHT22;10231;47.702;9.826;2024-02-15T01:56:52;5.30;99.90
20141;DHT22;10231;47.702;9.826;2024-02-15T01:59:18;6.10;99.90
20141;DHT22;10231;47.702;9.826;2024-02-15T02:01:44;5.40;99.90
20141;DHT22;10231;47.702;9.826;2024-02-15T02:04:10;5.50;99.90
20141;DHT22;10231;47.702;9.826;2024-02-15T02:06:37;5.60;99.90
20141;DHT22;10231;47.702;9.826;2024-02-15T02:09:03;5.60;99.90
20141;DHT22;10231;47.702;9.826;2024-02-15T02:11:29;5.50;99.90
20141;DHT22;10231;47.702;9.826;2024-02-15T02:13:55;5.40;99.90
20141;DHT22;10231;47.702;9.826;2024-02-15T02:16:28;5.40;99.90
20141;DHT22;10231;47.702;9.826;2024-02-15T02:18:55;5.40;99.90
20141;DHT22;10231;47.702;9.826;2024-02-15T02:21:21;5.50;99.90
20141;DHT22;10231;47.702;9.826;2024-02-15T02:23:53;5.60;99.90
20141;DHT22;10231;47.702;9.826;2024-02-15T02:26:22;5.60;99.90
20141;DHT22;10231;47.702;9.826;2024-02-15T02:28:49;5.50;99.90
20141;DHT22;10231;47.702;9.826;2024-02-15T02:31:15;5.50;99.90
20141;DHT22;10231;47.702;9.826;2024-02-15T02:33:41;5.50;99.90
20141;DHT22;10231;47.702;9.826;2024-02-15T02:36:07;5.40;99.90
20141;DHT22;10231;47.702;9.826;2024-02-15T02:38:35;5.30;99.90
20141;DHT22;10231;47.702;9.826;2024-02-15T02:41:04;5.10;99.90
20141;DHT22;10231;47.702;9.826;2024-02-15T02:43:29;4.90;99.90
20141;DHT22;10231;47.702;9.826;2024-02-15T02:45:55;4.80;99.90
20141;DHT22;10231;47.702;9.826;2024-02-15T02:48:21;4.80;99.90
20141;DHT22;10231;47.702;9.826;2024-02-15T02:50:47;4.80;99.90
20141;DHT22;10231;47.702;9.826;2024-02-15T02:53:13;4.80;99.90
20141;DHT22;10231;47.702;9.826;2024-02-15T02:55:41;4.80;99.90
20141;DHT22;10231;47.702;9.826;2024-02-15T03:01:28;4.80;99.90
20141;DHT22;10231;47.702;9.826;2024-02-15T03:03:54;4.80;99.90
20141;DHT22;10231;47.702;9.826;2024-02-15T03:06:23;4.70;99.90
20141;DHT22;10231;47.702;9.826;2024-02-15T03:08:50;4.80;99.90
20141;DHT22;10231;47.702;9.826;2024-02-15T03:11:19;4.70;99.90
20141;DHT22;10231;47.702;9.826;2024-02-15T03:13:45;4.60;99.90
20141;DHT22;10231;47.702;9.826;2024-02-15T03:16:11;4.50;99.90
20141;DHT22;10231;47.702;9.826;2024-02-15T03:18:36;4.60;99.90
20141;DHT22;10231;47.702;9.826;2024-02-15T03:21:02;4.50;99.90
20141;DHT22;10231;47.702;9.826;2024-02-15T03:23:29;4.50;99.90
20141;DHT22;10231;47.702;9.826;2024-02-15T03:25:56;4.50;99.90
20141;DHT22;10231;47.702;9.826;2024-02-15T03:28:21;4.30;99.90
20141;DHT22;10231;47.702;9.826;2024-02-15T03:30:48;4.30;99.90
20141;DHT22;10231;47.702;9.826;2024-02-15T03:33:15;4.30;99.90
20141;DHT22;10231;47.702;9.826;2024-02-15T03:35:41;4.30;99.90
20141;DHT22;10231;47.702;9.826;2024-02-15T03:38:06;4.20;99.90
20141;DHT22;10231;47.702;9.826;2024-02-15T03:40:32;4.20;99.90
20141;DHT22;10231;47.702;9.826;2024-02-15T03:42:58;4.10;99.90
20141;DHT22;10231;47.702;9.826;2024-02-15T03:45:23;4.10;99.90
20141;DHT22;10231;47.702;9.826;2024-02-15T03:47:51;4.10;99.90
20141;DHT22;10231;47.702;9.826;2024-02-15T03:50:17;4.10;99.90
20141;DHT22;10231;47.702;9.826;2024-02-15T03:52:44;4.10;99.90
20141;DHT22;10231;47.702;9.826;2024-02-15T03:55:10;4.10;99.90
20141;DHT22;10231;47.702;9.826;2024-02-15T03:57:38;4.00;99.90
20141;DHT22;10231;47.702;9.826;2024-02-15T04:00:09;4.00;99.90
20141;DHT22;10231;47.702;9.826;2024-02-15T04:02:36;4.00;99.90
20141;DHT22;10231;47.702;9.826;2024-02-15T04:05:02;4.10;99.90
20141;DHT22;10231;47.702;9.826;2024-02-15T04:07:30;4.20;99.90
20141;DHT22;10231;47.702;9.826;2024-02-15T04:09:56;4.20;99.90
20141;DHT22;10231;47.702;9.826;2024-02-15T04:12:22;4.30;99.90
20141;DHT22;10231;47.702;9.826;2024-02-15T04:14:48;4.10;99.90
20141;DHT22;10231;47.702;9.826;2024-02-15T04:17:14;4.10;99.90
20141;DHT22;10231;47.702;9.826;2024-02-15T04:19:44;4.00;99.90
20141;DHT22;10231;47.702;9.826;2024-02-15T04:22:10;4.00;99.90
20141;DHT22;10231;47.702;9.826;2024-02-15T04:24:36;4.10;99.90
20141;DHT22;10231;47.702;9.826;2024-02-15T04:27:09;4.00;99.90
20141;DHT22;10231;47.702;9.826;2024-02-15T04:29:37;3.90;99.90
20141;DHT22;10231;47.702;9.826;2024-02-15T04:32:08;3.90;99.90
20141;DHT22;10231;47.702;9.826;2024-02-15T04:34:35;3.90;99.90
20141;DHT22;10231;47.702;9.826;2024-02-15T04:37:00;4.00;99.90
20141;DHT22;10231;47.702;9.826;2024-02-15T04:39:32;4.00;99.90
20141;DHT22;10231;47.702;9.826;2024-02-15T04:41:57;4.00;99.90
20141;DHT22;10231;47.702;9.826;2024-02-15T04:44:23;4.00;99.90
20141;DHT22;10231;47.702;9.826;2024-02-15T04:46:55;4.00;99.90
20141;DHT22;10231;47.702;9.826;2024-02-15T04:49:21;4.00;99.90
20141;DHT22;10231;47.702;9.826;2024-02-15T04:51:48;4.00;99.90
20141;DHT22;10231;47.702;9.826;2024-02-15T04:54:14;3.90;99.90
20141;DHT22;10231;47.702;9.826;2024-02-15T04:56:40;3.80;99.90
20141;DHT22;10231;47.702;9.826;2024-02-15T04:59:07;3.90;99.90
20141;DHT22;10231;47.702;9.826;2024-02-15T05:01:34;3.90;99.90
20141;DHT22;10231;47.702;9.826;2024-02-15T05:04:00;4.00;99.90
20141;DHT22;10231;47.702;9.826;2024-02-15T05:06:29;4.10;99.90
20141;DHT22;10231;47.702;9.826;2024-02-15T05:08:55;4.10;99.90
20141;DHT22;10231;47.702;9.826;2024-02-15T05:11:23;4.10;99.90
20141;DHT22;10231;47.702;9.826;2024-02-15T05:13:48;4.00;99.90
20141;DHT22;10231;47.702;9.826;2024-02-15T05:16:16;3.80;99.90
20141;DHT22;10231;47.702;9.826;2024-02-15T05:18:42;3.70;99.90
20141;DHT22;10231;47.702;9.826;2024-02-15T05:21:07;3.70;99.90
20141;DHT22;10231;47.702;9.826;2024-02-15T05:23:36;3.60;99.90
20141;DHT22;10231;47.702;9.826;2024-02-15T05:26:03;3.50;99.90
20141;DHT22;10231;47.702;9.826;2024-02-15T05:28:29;3.50;99.90
20141;DHT22;10231;47.702;9.826;2024-02-15T05:31:13;3.60;99.90
20141;DHT22;10231;47.702;9.826;2024-02-15T05:33:48;3.50;99.90
20141;DHT22;10231;47.702;9.826;2024-02-15T05:36:15;3.60;99.90
20141;DHT22;10231;47.702;9.826;2024-02-15T05:38:41;3.70;99.90
20141;DHT22;10231;47.702;9.826;2024-02-15T05:41:07;3.80;99.90
20141;DHT22;10231;47.702;9.826;2024-02-15T05:43:36;3.90;99.90
20141;DHT22;10231;47.702;9.826;2024-02-15T05:46:02;3.90;99.90
20141;DHT22;10231;47.702;9.826;2024-02-15T05:48:28;3.90;99.90
20141;DHT22;10231;47.702;9.826;2024-02-15T05:50:55;4.00;99.90
20141;DHT22;10231;47.702;9.826;2024-02-15T05:53:21;4.10;99.90
20141;DHT22;10231;47.702;9.826;2024-02-15T05:55:47;4.20;99.90
20141;DHT22;10231;47.702;9.826;2024-02-15T05:58:15;4.10;99.90
20141;DHT22;10231;47.702;9.826;2024-02-15T06:00:41;4.10;99.90
20141;DHT22;10231;47.702;9.826;2024-02-15T06:03:07;4.00;99.90
20141;DHT22;10231;47.702;9.826;2024-02-15T06:05:35;4.00;99.90
20141;DHT22;10231;47.702;9.826;2024-02-15T06:08:00;4.00;99.90
20141;DHT22;10231;47.702;9.826;2024-02-15T06:10:26;3.70;99.90
20141;DHT22;10231;47.702;9.826;2024-02-15T06:12:52;3.50;99.90
20141;DHT22;10231;47.702;9.826;2024-02-15T06:15:17;3.40;99.90
20141;DHT22;10231;47.702;9.826;2024-02-15T06:17:44;3.40;99.90
20141;DHT22;10231;47.702;9.826;2024-02-15T06:20:14;3.20;99.90
20141;DHT22;10231;47.702;9.826;2024-02-15T06:22:40;3.20;99.90
20141;DHT22;10231;47.702;9.826;2024-02-15T06:25:07;3.20;99.90
20141;DHT22;10231;47.702;9.826;2024-02-15T06:27:32;3.30;99.90
20141;DHT22;10231;47.702;9.826;2024-02-15T06:29:58;3.40;99.90
20141;DHT22;10231;47.702;9.826;2024-02-15T06:32:43;3.40;99.90
20141;DHT22;10231;47.702;9.826;2024-02-15T06:35:27;3.40;99.90
20141;DHT22;10231;47.702;9.826;2024-02-15T06:38:11;3.40;99.90
20141;DHT22;10231;47.702;9.826;2024-02-15T06:40:55;3.50;99.90
20141;DHT22;10231;47.702;9.826;2024-02-15T06:43:21;3.50;99.90
20141;DHT22;10231;47.702;9.826;2024-02-15T06:45:46;3.60;99.90
20141;DHT22;10231;47.702;9.826;2024-02-15T06:48:12;3.50;99.90
20141;DHT22;10231;47.702;9.826;2024-02-15T06:50:38;3.50;99.90
20141;DHT22;10231;47.702;9.826;2024-02-15T06:53:05;3.50;99.90
20141;DHT22;10231;47.702;9.826;2024-02-15T06:55:30;3.50;99.90
20141;DHT22;10231;47.702;9.826;2024-02-15T06:57:56;3.40;99.90
20141;DHT22;10231;47.702;9.826;2024-02-15T07:00:22;3.30;99.90
20141;DHT22;10231;47.702;9.826;2024-02-15T07:02:47;3.40;99.90
20141;DHT22;10231;47.702;9.826;2024-02-15T07:05:14;3.50;99.90
20141;DHT22;10231;47.702;9.826;2024-02-15T07:07:39;3.70;99.90
20141;DHT22;10231;47.702;9.826;2024-02-15T07:10:08;3.70;99.90
20141;DHT22;10231;47.702;9.826;2024-02-15T07:12:34;3.80;99.90
20141;DHT22;10231;47.702;9.826;2024-02-15T07:15:00;3.80;99.90
20141;DHT22;10231;47.702;9.826;2024-02-15T07:17:27;3.80;99.90
20141;DHT22;10231;47.702;9.826;2024-02-15T07:19:53;3.80;99.90
20141;DHT22;10231;47.702;9.826;2024-02-15T07:22:19;3.70;99.90
20141;DHT22;10231;47.702;9.826;2024-02-15T07:24:44;3.80;99.90
20141;DHT22;10231;47.702;9.826;2024-02-15T07:27:10;3.80;99.90
20141;DHT22;10231;47.702;9.826;2024-02-15T07:29:35;3.70;99.90
20141;DHT22;10231;47.702;9.826;2024-02-15T07:32:04;3.50;99.90
20141;DHT22;10231;47.702;9.826;2024-02-15T07:34:32;3.60;99.90
20141;DHT22;10231;47.702;9.826;2024-02-15T07:36:58;3.70;99.90
20141;DHT22;10231;47.702;9.826;2024-02-15T07:39:25;3.80;99.90
20141;DHT22;10231;47.702;9.826;2024-02-15T07:41:53;3.80;99.90
20141;DHT22;10231;47.702;9.826;2024-02-15T07:44:20;3.90;99.90
20141;DHT22;10231;47.702;9.826;2024-02-15T07:46:47;3.70;99.90
20141;DHT22;10231;47.702;9.826;2024-02-15T07:49:13;3.80;99.90
20141;DHT22;10231;47.702;9.826;2024-02-15T07:51:38;3.90;99.90
20141;DHT22;10231;47.702;9.826;2024-02-15T07:54:04;4.00;99.90
20141;DHT22;10231;47.702;9.826;2024-02-15T07:56:30;4.00;99.90
20141;DHT22;10231;47.702;9.826;2024-02-15T07:58:55;4.10;99.90
20141;DHT22;10231;47.702;9.826;2024-02-15T08:01:21;4.10;99.90
20141;DHT22;10231;47.702;9.826;2024-02-15T08:03:48;4.20;99.90
20141;DHT22;10231;47.702;9.826;2024-02-15T08:06:14;4.20;99.90
20141;DHT22;10231;47.702;9.826;2024-02-15T08:08:43;4.40;99.90
20141;DHT22;10231;47.702;9.826;2024-02-15T08:11:15;4.50;99.90
20141;DHT22;10231;47.702;9.826;2024-02-15T08:13:44;4.60;99.90
20141;DHT22;10231;47.702;9.826;2024-02-15T08:16:22;4.70;99.90
20141;DHT22;10231;47.702;9.826;2024-02-15T08:18:48;4.90;99.90
20141;DHT22;10231;47.702;9.826;2024-02-15T08:21:17;4.90;99.90
20141;DHT22;10231;47.702;9.826;2024-02-15T08:23:43;5.00;99.90
20141;DHT22;10231;47.702;9.826;2024-02-15T08:26:09;5.20;99.90
20141;DHT22;10231;47.702;9.826;2024-02-15T08:28:36;5.30;99.90
20141;DHT22;10231;47.702;9.826;2024-02-15T08:31:02;5.40;99.90
20141;DHT22;10231;47.702;9.826;2024-02-15T08:33:29;5.40;99.90
20141;DHT22;10231;47.702;9.826;2024-02-15T08:35:55;5.50;99.90
20141;DHT22;10231;47.702;9.826;2024-02-15T08:38:24;5.60;99.90
20141;DHT22;10231;47.702;9.826;2024-02-15T08:40:50;5.70;99.90
20141;DHT22;10231;47.702;9.826;2024-02-15T08:43:15;5.70;99.90
20141;DHT22;10231;47.702;9.826;2024-02-15T08:45:42;5.80;99.90
20141;DHT22;10231;47.702;9.826;2024-02-15T08:48:08;5.90;99.90
20141;DHT22;10231;47.702;9.826;2024-02-15T08:50:34;6.00;99.90
20141;DHT22;10231;47.702;9.826;2024-02-15T08:53:01;6.20;99.90
20141;DHT22;10231;47.702;9.826;2024-02-15T08:55:31;6.30;99.90
20141;DHT22;10231;47.702;9.826;2024-02-15T08:57:57;6.40;99.90
20141;DHT22;10231;47.702;9.826;2024-02-15T09:00:23;6.50;99.90
20141;DHT22;10231;47.702;9.826;2024-02-15T09:02:49;6.60;99.90
20141;DHT22;10231;47.702;9.826;2024-02-15T09:05:15;6.60;99.90
20141;DHT22;10231;47.702;9.826;2024-02-15T09:07:45;6.70;99.90
20141;DHT22;10231;47.702;9.826;2024-02-15T09:10:14;6.80;99.90
20141;DHT22;10231;47.702;9.826;2024-02-15T09:12:43;6.90;99.90
20141;DHT22;10231;47.702;9.826;2024-02-15T09:15:10;7.00;99.90
20141;DHT22;10231;47.702;9.826;2024-02-15T09:17:39;7.10;99.90
20141;DHT22;10231;47.702;9.826;2024-02-15T09:20:09;7.20;99.90
20141;DHT22;10231;47.702;9.826;2024-02-15T09:22:41;7.30;99.90
20141;DHT22;10231;47.702;9.826;2024-02-15T09:25:07;7.40;99.90
20141;DHT22;10231;47.702;9.826;2024-02-15T09:27:33;7.50;99.90
20141;DHT22;10231;47.702;9.826;2024-02-15T09:29:59;7.60;99.90
20141;DHT22;10231;47.702;9.826;2024-02-15T09:32:24;7.70;99.90
20141;DHT22;10231;47.702;9.826;2024-02-15T09:34:50;7.80;99.90
20141;DHT22;10231;47.702;9.826;2024-02-15T09:37:15;7.90;99.90
20141;DHT22;10231;47.702;9.826;2024-02-15T09:39:41;8.00;99.90
20141;DHT22;10231;47.702;9.826;2024-02-15T09:42:06;8.10;99.90
20141;DHT22;10231;47.702;9.826;2024-02-15T09:44:32;8.20;99.90
20141;DHT22;10231;47.702;9.826;2024-02-15T09:47:05;8.20;99.90
20141;DHT22;10231;47.702;9.826;2024-02-15T09:49:38;8.30;99.90
20141;DHT22;10231;47.702;9.826;2024-02-15T09:52:06;8.40;99.90
20141;DHT22;10231;47.702;9.826;2024-02-15T09:54:40;8.40;99.90
20141;DHT22;10231;47.702;9.826;2024-02-15T09:57:08;8.50;99.90
20141;DHT22;10231;47.702;9.826;2024-02-15T09:59:34;8.60;99.90
20141;DHT22;10231;47.702;9.826;2024-02-15T10:02:02;8.60;99.90
20141;DHT22;10231;47.702;9.826;2024-02-15T10:04:28;8.70;99.90
20141;DHT22;10231;47.702;9.826;2024-02-15T10:06:53;8.70;99.90
20141;DHT22;10231;47.702;9.826;2024-02-15T10:09:29;8.80;99.90
20141;DHT22;10231;47.702;9.826;2024-02-15T10:12:02;8.90;99.90
20141;DHT22;10231;47.702;9.826;2024-02-15T10:14:29;9.00;99.90
20141;DHT22;10231;47.702;9.826;2024-02-15T10:16:55;9.00;99.90
20141;DHT22;10231;47.702;9.826;2024-02-15T10:19:21;9.10;99.90
20141;DHT22;10231;47.702;9.826;2024-02-15T10:21:54;9.20;99.90
20141;DHT22;10231;47.702;9.826;2024-02-15T10:24:23;9.30;99.90
20141;DHT22;10231;47.702;9.826;2024-02-15T10:27:03;9.30;99.90
20141;DHT22;10231;47.702;9.826;2024-02-15T10:29:30;9.30;99.90
20141;DHT22;10231;47.702;9.826;2024-02-15T10:32:00;9.30;99.90
20141;DHT22;10231;47.702;9.826;2024-02-15T10:34:26;9.40;99.90
20141;DHT22;10231;47.702;9.826;2024-02-15T10:37:16;9.50;99.90
20141;DHT22;10231;47.702;9.826;2024-02-15T10:40:04;9.60;99.90
20141;DHT22;10231;47.702;9.826;2024-02-15T10:42:33;9.60;99.90
20141;DHT22;10231;47.702;9.826;2024-02-15T10:45:03;9.70;99.90
20141;DHT22;10231;47.702;9.826;2024-02-15T10:47:30;9.80;99.90
20141;DHT22;10231;47.702;9.826;2024-02-15T10:49:57;9.90;99.90
20141;DHT22;10231;47.702;9.826;2024-02-15T10:52:25;9.90;99.90
20141;DHT22;10231;47.702;9.826;2024-02-15T10:55:03;10.00;99.90
20141;DHT22;10231;47.702;9.826;2024-02-15T10:57:31;10.00;99.90
20141;DHT22;10231;47.702;9.826;2024-02-15T10:59:59;10.10;99.90
20141;DHT22;10231;47.702;9.826;2024-02-15T11:02:37;10.10;99.90
20141;DHT22;10231;47.702;9.826;2024-02-15T11:05:07;10.20;99.90
20141;DHT22;10231;47.702;9.826;2024-02-15T11:07:37;10.20;99.90
20141;DHT22;10231;47.702;9.826;2024-02-15T11:10:07;10.30;99.90
20141;DHT22;10231;47.702;9.826;2024-02-15T11:12:36;10.40;99.90
20141;DHT22;10231;47.702;9.826;2024-02-15T11:15:02;10.60;99.90
20141;DHT22;10231;47.702;9.826;2024-02-15T11:20:09;10.70;99.90
20141;DHT22;10231;47.702;9.826;2024-02-15T11:22:39;10.90;99.90
20141;DHT22;10231;47.702;9.826;2024-02-15T11:25:06;11.00;99.90
20141;DHT22;10231;47.702;9.826;2024-02-15T11:27:37;11.00;99.90
20141;DHT22;10231;47.702;9.826;2024-02-15T11:30:05;11.10;99.90
20141;DHT22;10231;47.702;9.826;2024-02-15T11:32:45;11.10;99.90
20141;DHT22;10231;47.702;9.826;2024-02-15T11:35:17;11.10;99.90
20141;DHT22;10231;47.702;9.826;2024-02-15T11:40:21;11.30;99.90
20141;DHT22;10231;47.702;9.826;2024-02-15T11:42:53;11.40;99.90
20141;DHT22;10231;47.702;9.826;2024-02-15T11:45:19;11.50;99.90
20141;DHT22;10231;47.702;9.826;2024-02-15T11:47:50;11.60;99.90
20141;DHT22;10231;47.702;9.826;2024-02-15T11:50:18;11.80;99.90
20141;DHT22;10231;47.702;9.826;2024-02-15T11:52:46;11.80;99.90
20141;DHT22;10231;47.702;9.826;2024-02-15T11:55:17;11.90;99.90
20141;DHT22;10231;47.702;9.826;2024-02-15T11:58:00;12.10;99.90
20141;DHT22;10231;47.702;9.826;2024-02-15T12:00:31;12.40;99.90
20141;DHT22;10231;47.702;9.826;2024-02-15T12:03:15;12.60;99.90
20141;DHT22;10231;47.702;9.826;2024-02-15T12:06:00;12.70;99.90
20141;DHT22;10231;47.702;9.826;2024-02-15T12:08:48;12.70;99.90
20141;DHT22;10231;47.702;9.826;2024-02-15T12:11:33;12.70;99.90
20141;DHT22;10231;47.702;9.826;2024-02-15T12:14:17;12.70;99.90
20141;DHT22;10231;47.702;9.826;2024-02-15T12:17:03;12.80;99.90
20141;DHT22;10231;47.702;9.826;2024-02-15T12:19:49;12.80;99.90
20141;DHT22;10231;47.702;9.826;2024-02-15T12:22:20;12.80;99.90
20141;DHT22;10231;47.702;9.826;2024-02-15T12:25:00;12.80;99.90
20141;DHT22;10231;47.702;9.826;2024-02-15T12:27:26;12.80;99.90
20141;DHT22;10231;47.702;9.826;2024-02-15T12:30:01;12.90;99.90
20141;DHT22;10231;47.702;9.826;2024-02-15T12:32:31;12.90;99.90
20141;DHT22;10231;47.702;9.826;2024-02-15T12:35:16;12.80;99.90
20141;DHT22;10231;47.702;9.826;2024-02-15T12:40:35;12.80;99.90
20141;DHT22;10231;47.702;9.826;2024-02-15T12:43:02;12.80;99.90
20141;DHT22;10231;47.702;9.826;2024-02-15T12:45:31;12.80;99.90
20141;DHT22;10231;47.702;9.826;2024-02-15T12:47:57;12.90;99.90
20141;DHT22;10231;47.702;9.826;2024-02-15T12:50:27;12.90;99.90
20141;DHT22;10231;47.702;9.826;2024-02-15T12:52:53;13.00;99.90
20141;DHT22;10231;47.702;9.826;2024-02-15T12:55:22;13.00;99.90
20141;DHT22;10231;47.702;9.826;2024-02-15T12:57:54;13.00;99.90
20141;DHT22;10231;47.702;9.826;2024-02-15T13:00:25;13.10;99.90
20141;DHT22;10231;47.702;9.826;2024-02-15T13:02:55;13.20;99.90
20141;DHT22;10231;47.702;9.826;2024-02-15T13:05:22;13.20;99.90
20141;DHT22;10231;47.702;9.826;2024-02-15T13:07:49;13.20;99.90
20141;DHT22;10231;47.702;9.826;2024-02-15T13:10:15;13.30;99.90
20141;DHT22;10231;47.702;9.826;2024-02-15T13:12:45;13.50;99.90
20141;DHT22;10231;47.702;9.826;2024-02-15T13:15:15;13.50;99.90
20141;DHT22;10231;47.702;9.826;2024-02-15T13:17:44;13.60;99.90
20141;DHT22;10231;47.702;9.826;2024-02-15T13:20:11;13.60;99.90
20141;DHT22;10231;47.702;9.826;2024-02-15T13:22:40;13.70;99.90
20141;DHT22;10231;47.702;9.826;2024-02-15T13:25:07;13.70;99.90
20141;DHT22;10231;47.702;9.826;2024-02-15T13:27:36;13.70;99.90
20141;DHT22;10231;47.702;9.826;2024-02-15T13:30:06;13.80;99.90
20141;DHT22;10231;47.702;9.826;2024-02-15T13:32:38;13.80;99.90
20141;DHT22;10231;47.702;9.826;2024-02-15T13:35:06;13.80;99.90
20141;DHT22;10231;47.702;9.826;2024-02-15T13:37:46;13.80;99.90
20141;DHT22;10231;47.702;9.826;2024-02-15T13:40:12;13.80;99.90
20141;DHT22;10231;47.702;9.826;2024-02-15T13:42:45;13.90;99.90
20141;DHT22;10231;47.702;9.826;2024-02-15T13:45:16;14.00;99.90
20141;DHT22;10231;47.702;9.826;2024-02-15T13:47:45;14.00;99.90
20141;DHT22;10231;47.702;9.826;2024-02-15T13:50:11;14.20;99.90
20141;DHT22;10231;47.702;9.826;2024-02-15T13:52:40;14.20;99.90
20141;DHT22;10231;47.702;9.826;2024-02-15T13:55:12;14.20;99.90
20141;DHT22;10231;47.702;9.826;2024-02-15T13:57:43;14.30;99.90
20141;DHT22;10231;47.702;9.826;2024-02-15T14:00:13;14.40;99.90
20141;DHT22;10231;47.702;9.826;2024-02-15T14:02:47;14.40;99.90
20141;DHT22;10231;47.702;9.826;2024-02-15T14:05:13;14.60;99.90
20141;DHT22;10231;47.702;9.826;2024-02-15T14:07:39;14.50;99.90
20141;DHT22;10231;47.702;9.826;2024-02-15T14:10:05;14.50;99.90
20141;DHT22;10231;47.702;9.826;2024-02-15T14:12:31;14.60;99.90
20141;DHT22;10231;47.702;9.826;2024-02-15T14:14:57;14.70;99.90
20141;DHT22;10231;47.702;9.826;2024-02-15T14:17:23;14.90;99.90
20141;DHT22;10231;47.702;9.826;2024-02-15T14:19:49;15.00;99.90
20141;DHT22;10231;47.702;9.826;2024-02-15T14:22:14;15.10;99.90
20141;DHT22;10231;47.702;9.826;2024-02-15T14:24:44;15.30;99.90
20141;DHT22;10231;47.702;9.826;2024-02-15T14:27:10;15.40;99.90
20141;DHT22;10231;47.702;9.826;2024-02-15T14:29:37;15.50;99.90
20141;DHT22;10231;47.702;9.826;2024-02-15T14:32:12;15.50;99.80
20141;DHT22;10231;47.702;9.826;2024-02-15T14:34:57;15.50;99.80
20141;DHT22;10231;47.702;9.826;2024-02-15T14:37:23;15.50;99.30
20141;DHT22;10231;47.702;9.826;2024-02-15T14:39:49;15.60;99.60
20141;DHT22;10231;47.702;9.826;2024-02-15T14:42:15;15.60;99.70
20141;DHT22;10231;47.702;9.826;2024-02-15T14:44:41;15.60;99.80
20141;DHT22;10231;47.702;9.826;2024-02-15T14:47:08;15.60;99.30
20141;DHT22;10231;47.702;9.826;2024-02-15T14:49:34;15.60;99.40
20141;DHT22;10231;47.702;9.826;2024-02-15T14:52:00;15.50;99.30
20141;DHT22;10231;47.702;9.826;2024-02-15T14:54:27;15.50;99.70
20141;DHT22;10231;47.702;9.826;2024-02-15T14:56:52;15.40;99.90
20141;DHT22;10231;47.702;9.826;2024-02-15T14:59:19;15.30;99.90
20141;DHT22;10231;47.702;9.826;2024-02-15T15:01:45;15.20;99.90
20141;DHT22;10231;47.702;9.826;2024-02-15T15:04:10;15.00;99.90
20141;DHT22;10231;47.702;9.826;2024-02-15T15:06:38;14.90;99.90
20141;DHT22;10231;47.702;9.826;2024-02-15T15:09:22;14.80;99.90
20141;DHT22;10231;47.702;9.826;2024-02-15T15:12:06;14.60;99.90
20141;DHT22;10231;47.702;9.826;2024-02-15T15:14:49;14.50;99.90
20141;DHT22;10231;47.702;9.826;2024-02-15T15:17:15;14.40;99.90
20141;DHT22;10231;47.702;9.826;2024-02-15T15:19:42;14.30;99.90
20141;DHT22;10231;47.702;9.826;2024-02-15T15:22:08;14.20;99.90
20141;DHT22;10231;47.702;9.826;2024-02-15T15:24:33;14.10;99.90
20141;DHT22;10231;47.702;9.826;2024-02-15T15:26:59;14.00;99.90
20141;DHT22;10231;47.702;9.826;2024-02-15T15:29:25;13.90;99.90
20141;DHT22;10231;47.702;9.826;2024-02-15T15:31:51;13.90;99.90
20141;DHT22;10231;47.702;9.826;2024-02-15T15:34:17;13.90;99.90
20141;DHT22;10231;47.702;9.826;2024-02-15T15:36:45;13.70;99.90
20141;DHT22;10231;47.702;9.826;2024-02-15T15:39:12;13.60;99.90
20141;DHT22;10231;47.702;9.826;2024-02-15T15:41:38;13.60;99.90
20141;DHT22;10231;47.702;9.826;2024-02-15T15:44:03;13.50;99.90
20141;DHT22;10231;47.702;9.826;2024-02-15T15:46:30;13.40;99.90
20141;DHT22;10231;47.702;9.826;2024-02-15T15:48:55;13.30;99.90
20141;DHT22;10231;47.702;9.826;2024-02-15T15:51:21;13.30;99.90
20141;DHT22;10231;47.702;9.826;2024-02-15T15:53:47;13.20;99.90
20141;DHT22;10231;47.702;9.826;2024-02-15T15:56:14;13.10;99.90
20141;DHT22;10231;47.702;9.826;2024-02-15T15:58:42;13.00;99.90
20141;DHT22;10231;47.702;9.826;2024-02-15T16:01:10;12.90;99.90